Observations for LEEDS AND BRADFORD, United Kingdom (EGNM)

EGNM 280520Z 07008KT 010V110 3500 -RADZ BR SCT002 BKN003 10/// Q1002
EGNM 280450Z 06006KT 360V110 1500 -RADZ BR SCT001 BKN002 10/// Q1002
EGNM 280420Z 07009KT 010V110 3000 DZ BR SCT001 BKN002 10/// Q1002   
EGNM 280350Z 06008KT 010V170 1200 DZ BR SCT001 BKN002 10/// Q1002   
EGNM 280320Z 06008KT 350V150 1100 DZ BR FEW001 BKN002 10/// Q1002   
EGNM 280250Z 06008KT 010V110 1100 DZ BR OVC002 10/// Q1003  
EGNM 280220Z 05007KT 010V110 1100 DZ BR OVC002 10/// Q1003  
EGNM 280150Z 06006KT 010V140 1100 DZ BR OVC002 10/// Q1003  
EGNM 280120Z 06006KT 360V110 1200 R32/1400 DZ BR SCT001 BKN002 10/// Q1004  
EGNM 280050Z 07008KT 010V110 1200 R32/0700 DZ BR SCT001 BKN002 10/10 Q1004  
EGNM 280020Z 06007KT 040V100 1200 R14/1400 DZ BR SCT001 BKN002 10/// Q1004  
EGNM 272350Z 07009KT 040V100 2000 -DZ BR SCT001 BKN002 10/10 Q1005  
EGNM 272320Z 08009KT 050V110 2500 -DZ BR SCT002 BKN003 10/// Q1005  
EGNM 272250Z 08009KT 1500 -RADZ BR SCT002 BKN003 10/10 Q1005
EGNM 272220Z 08009KT 040V100 1200 R14/P1500 -DZ BR SCT001 BKN002 11/11 Q1005
EGNM 272150Z 08009KT 1500 -DZ BR SCT001 BKN002 11/11 Q1005  
EGNM 272120Z 08007KT 1500 DZ BR SCT002 BKN003 11/11 Q1005   
EGNM 272050Z 10008KT 060V130 5000 BR SCT004 BKN005 11/11 Q1005  
EGNM 272020Z 09008KT 060V120 5000 BR SCT004 BKN005 12/12 Q1005  
EGNM 271950Z 10010KT 070V130 6000 BKN004 BKN007 12/12 Q1005 
EGNM 271920Z 10008KT 9000 SCT007 BKN011 12/12 Q1005 
EGNM 271850Z 12009KT 9999 FEW010 BKN012 12/12 Q1006 
EGNM 271820Z 12008KT 9999 FEW010 BKN012 13/12 Q1006 
EGNM 271750Z 11010KT 9999 FEW010 BKN012 13/11 Q1006 
EGNM 271720Z 11010KT 9999 FEW008 BKN011 13/12 Q1006 
EGNM 271650Z 10010KT 060V130 9999 FEW008 BKN011 13/12 Q1006 
EGNM 271620Z 10009KT 9999 FEW007 BKN010 13/13 Q1006 
EGNM 271550Z 09009KT 9999 SCT007 BKN010 13/13 Q1006 
EGNM 271520Z 10010KT 080V140 9999 BKN010 13/13 Q1007
EGNM 271450Z 11011KT 9999 BKN015 13/12 Q1007
EGNM 271420Z 11012KT 9999 SCT010 BKN020 13/12 Q1007 
EGNM 271350Z 11012KT 070V140 9999 FEW005 BKN020 13/12 Q1007 
EGNM 271320Z 11011KT 9999 SCT005 BKN015 13/12 Q1007 
EGNM 271250Z 09008KT 060V130 9999 SCT005 BKN010 13/13 Q1008 
EGNM 271220Z 09010KT 9999 -RADZ SCT004 BKN009 13/13 Q1008   
EGNM 271150Z 10011KT 9999 -RADZ SCT005 SCT015 13/12 Q1008   
EGNM 271120Z 11013KT 9999 -RADZ SCT004 BKN007 12/12 Q1008   
EGNM 271050Z 11010KT 6000 -RADZ SCT004 BKN007 12/12 Q1008   
EGNM 271020Z 11009KT 9000 -RA SCT008 BKN011 11/11 Q1009 
EGNM 270950Z 10007KT 060V130 9999 -RA FEW009 SCT012 BKN035 11/11 Q1009  
EGNM 270920Z 10008KT 9999 -RA FEW012 BKN025 10/10 Q1009 
EGNM 270850Z 11009KT 9000 -RA FEW010 BKN018 10/10 Q1010 
EGNM 270820Z 12011KT 4000 -RA BR SCT009 BKN017 10/10 Q1010  
EGNM 270750Z 12012KT 3000 -RA BR SCT007 BKN014 10/10 Q1010  
EGNM 270720Z 11008KT 090V160 3500 -RA BR SCT008 BKN017 10/10 Q1011  
EGNM 270650Z 11007KT 070V140 9000 -RA SCT009 BKN021 10/10 Q1010 
EGNM 270620Z 11010KT 8000 -RA SCT011 BKN028 10/10 Q1010 
EGNM 270550Z 10009KT 060V140 4000 -RA BR SCT009 BKN027 10/10 Q1010  
EGNM 270520Z 10009KT 060V140 4000 -RA BR SCT009 BKN027 10/10 Q1010  
EGNM 270450Z 06006KT 8000 -RA FEW004 BKN024 10/10 Q1011